| time (UTC) | temp F | wind direction | speed MPH | gust MPH | rain 1hr in | rain 24hr in | rain mn in | humidity % | barometer mb |
| 20260506222003 | 57 | 271 | 3.0 | 18.0 | 0.02 | 0.51 | 0.51 | 88 | 1007.7 |
| 20260506221504 | 58 | 254 | 2.0 | 7.0 | 0.00 | 0.48 | 0.48 | 89 | 1007.3 |
| 20260506221003 | 58 | 240 | 2.0 | 9.0 | 0.00 | 0.48 | 0.48 | 89 | 1007.0 |
| 20260506220503 | 58 | 248 | 3.0 | 9.0 | 0.00 | 0.48 | 0.48 | 89 | 1007.0 |
| 20260506220003 | 58 | 244 | 2.0 | 9.0 | 0.00 | 0.48 | 0.48 | 89 | 1007.1 |
| 20260506215503 | 58 | 227 | 2.0 | 9.0 | 0.00 | 0.48 | 0.48 | 89 | 1007.0 |
| 20260506215003 | 58 | 205 | 2.0 | 9.0 | 0.00 | 0.48 | 0.48 | 89 | 1007.0 |
| 20260506214524 | 58 | 218 | 2.0 | 9.0 | 0.00 | 0.48 | 0.48 | 90 | 1007.0 |
| 20260506214003 | 58 | 244 | 2.0 | 10.0 | 0.00 | 0.48 | 0.48 | 90 | 1007.0 |
| 20260506213524 | 58 | 232 | 2.0 | 10.0 | 0.00 | 0.48 | 0.48 | 90 | 1006.8 |
| 20260506213003 | 58 | 237 | 2.0 | 7.0 | 0.00 | 0.48 | 0.48 | 90 | 1006.8 |
| 20260506212503 | 58 | 237 | 2.0 | 9.0 | 0.00 | 0.48 | 0.48 | 90 | 1006.7 |
| 20260506212003 | 58 | 242 | 3.0 | 10.0 | 0.00 | 0.48 | 0.48 | 90 | 1006.8 |
| 20260506211503 | 58 | 241 | 4.0 | 10.0 | 0.00 | 0.48 | 0.48 | 90 | 1006.8 |
| 20260506211003 | 58 | 217 | 4.0 | 10.0 | 0.00 | 0.48 | 0.48 | 90 | 1006.8 |
| 20260506210503 | 58 | 202 | 3.0 | 11.0 | 0.00 | 0.48 | 0.48 | 90 | 1006.9 |
| 20260506210024 | 58 | 198 | 3.0 | 11.0 | 0.00 | 0.48 | 0.48 | 90 | 1006.8 |
| 20260506205503 | 58 | 201 | 3.0 | 10.0 | 0.00 | 0.48 | 0.48 | 90 | 1006.5 |
| 20260506205003 | 57 | 223 | 3.0 | 13.0 | 0.00 | 0.48 | 0.48 | 90 | 1006.8 |
| 20260506204503 | 58 | 229 | 3.0 | 13.0 | 0.00 | 0.48 | 0.48 | 90 | 1006.6 |
| 20260506204003 | 57 | 225 | 2.0 | 9.0 | 0.00 | 0.48 | 0.48 | 90 | 1006.5 |
| 20260506203524 | 57 | 222 | 2.0 | 10.0 | 0.00 | 0.48 | 0.48 | 90 | 1006.5 |
| 20260506203003 | 57 | 239 | 2.0 | 10.0 | 0.00 | 0.48 | 0.48 | 90 | 1006.5 |
| 20260506202503 | 57 | 243 | 2.0 | 8.0 | 0.00 | 0.48 | 0.48 | 90 | 1006.6 |
| 20260506202003 | 57 | 237 | 2.0 | 11.0 | 0.00 | 0.48 | 0.48 | 90 | 1006.5 |
| 20260506201503 | 57 | 237 | 2.0 | 11.0 | 0.00 | 0.48 | 0.48 | 90 | 1006.6 |
| 20260506201003 | 57 | 227 | 3.0 | 10.0 | 0.00 | 0.48 | 0.48 | 90 | 1006.7 |
| 20260506200503 | 57 | 214 | 2.0 | 10.0 | 0.00 | 0.48 | 0.48 | 90 | 1006.9 |
| 20260506200024 | 57 | 216 | 3.0 | 10.0 | 0.00 | 0.48 | 0.48 | 90 | 1006.7 |
| 20260506195503 | 57 | 229 | 3.0 | 9.0 | 0.00 | 0.48 | 0.48 | 90 | 1006.7 |
| 20260506195024 | 57 | 220 | 3.0 | 9.0 | 0.01 | 0.48 | 0.48 | 90 | 1006.6 |
| 20260506194503 | 57 | 204 | 3.0 | 9.0 | 0.01 | 0.48 | 0.48 | 91 | 1006.9 |
| 20260506194003 | 57 | 202 | 2.0 | 8.0 | 0.01 | 0.48 | 0.48 | 91 | 1006.8 |
| 20260506193503 | 57 | 224 | 2.0 | 8.0 | 0.02 | 0.48 | 0.48 | 91 | 1006.9 |
| 20260506193024 | 57 | 226 | 2.0 | 11.0 | 0.02 | 0.48 | 0.48 | 91 | 1006.6 |
| 20260506192524 | 57 | 219 | 3.0 | 11.0 | 0.01 | 0.48 | 0.48 | 91 | 1006.9 |
| 20260506192003 | 57 | 212 | 2.0 | 9.0 | 0.02 | 0.48 | 0.48 | 91 | 1006.9 |
| 20260506191503 | 57 | 206 | 2.0 | 9.0 | 0.02 | 0.48 | 0.48 | 91 | 1006.8 |
| 20260506191003 | 57 | 213 | 3.0 | 8.0 | 0.02 | 0.48 | 0.48 | 91 | 1007.3 |
| 20260506190524 | 57 | 207 | 3.0 | 8.0 | 0.02 | 0.48 | 0.48 | 91 | 1007.2 |
| 20260506190003 | 57 | 202 | 3.0 | 8.0 | 0.03 | 0.48 | 0.48 | 91 | 1007.3 |
| 20260506185503 | 56 | 206 | 2.0 | 8.0 | 0.03 | 0.48 | 0.48 | 91 | 1007.1 |
| 20260506185003 | 56 | 194 | 2.0 | 11.0 | 0.03 | 0.48 | 0.48 | 91 | 1007.2 |
| 20260506184503 | 56 | 198 | 3.0 | 11.0 | 0.04 | 0.48 | 0.48 | 91 | 1007.2 |
| 20260506184003 | 56 | 200 | 3.0 | 9.0 | 0.05 | 0.47 | 0.47 | 91 | 1007.3 |
| 20260506183503 | 56 | 208 | 3.0 | 9.0 | 0.06 | 0.47 | 0.47 | 91 | 1007.3 |
| 20260506183024 | 56 | 211 | 3.0 | 10.0 | 0.08 | 0.47 | 0.47 | 91 | 1007.3 |
| 20260506182503 | 56 | 199 | 3.0 | 10.0 | 0.09 | 0.47 | 0.47 | 91 | 1007.4 |
| 20260506182003 | 56 | 210 | 2.0 | 8.0 | 0.09 | 0.46 | 0.46 | 91 | 1007.3 |
| 20260506181503 | 56 | 209 | 2.0 | 7.0 | 0.10 | 0.46 | 0.46 | 91 | 1007.4 |
| 20260506181003 | 56 | 180 | 2.0 | 9.0 | 0.11 | 0.46 | 0.46 | 91 | 1007.4 |
| 20260506180503 | 56 | 177 | 3.0 | 13.0 | 0.10 | 0.46 | 0.46 | 91 | 1007.6 |
| 20260506180004 | 56 | 180 | 3.0 | 13.0 | 0.10 | 0.45 | 0.45 | 91 | 1007.6 |
| 20260506175503 | 56 | 174 | 3.0 | 9.0 | 0.09 | 0.45 | 0.45 | 91 | 1007.5 |
| 20260506175003 | 56 | 168 | 3.0 | 9.0 | 0.09 | 0.44 | 0.44 | 91 | 1007.5 |
| 20260506174524 | 56 | 180 | 3.0 | 9.0 | 0.09 | 0.44 | 0.44 | 91 | 1007.5 |
| 20260506174003 | 56 | 180 | 4.0 | 11.0 | 0.07 | 0.42 | 0.42 | 91 | 1007.5 |
| 20260506173503 | 56 | 182 | 4.0 | 14.0 | 0.06 | 0.41 | 0.41 | 91 | 1007.6 |
| 20260506173003 | 56 | 186 | 4.0 | 14.0 | 0.06 | 0.39 | 0.39 | 90 | 1007.6 |
| 20260506172503 | 56 | 201 | 4.0 | 11.0 | 0.06 | 0.38 | 0.38 | 90 | 1007.5 |
| 20260506172024 | 56 | 189 | 4.0 | 11.0 | 0.06 | 0.37 | 0.37 | 90 | 1007.8 |
| 20260506171503 | 56 | 165 | 3.0 | 9.0 | 0.06 | 0.37 | 0.37 | 90 | 1007.7 |
| 20260506171003 | 56 | 172 | 4.0 | 10.0 | 0.05 | 0.35 | 0.35 | 90 | 1007.7 |
| 20260506170503 | 56 | 187 | 3.0 | 11.0 | 0.06 | 0.35 | 0.35 | 90 | 1007.9 |
| 20260506170003 | 56 | 196 | 3.0 | 13.0 | 0.06 | 0.35 | 0.35 | 90 | 1007.5 |
| 20260506165503 | 56 | 181 | 4.0 | 13.0 | 0.06 | 0.35 | 0.35 | 90 | 1007.5 |
| 20260506165003 | 56 | 176 | 5.0 | 13.0 | 0.07 | 0.35 | 0.35 | 90 | 1007.5 |
| 20260506164524 | 56 | 173 | 4.0 | 13.0 | 0.08 | 0.35 | 0.35 | 90 | 1007.6 |
| 20260506164024 | 56 | 189 | 3.0 | 17.0 | 0.10 | 0.35 | 0.35 | 90 | 1007.6 |
| 20260506163503 | 56 | 198 | 3.0 | 10.0 | 0.12 | 0.35 | 0.35 | 90 | 1007.5 |
| 20260506163003 | 56 | 197 | 4.0 | 10.0 | 0.12 | 0.33 | 0.33 | 90 | 1007.6 |
| 20260506162503 | 56 | 185 | 3.0 | 10.0 | 0.12 | 0.32 | 0.32 | 90 | 1007.8 |
| 20260506162003 | 56 | 162 | 3.0 | 15.0 | 0.12 | 0.31 | 0.31 | 90 | 1007.8 |
| 20260506161503 | 56 | 162 | 3.0 | 15.0 | 0.12 | 0.31 | 0.31 | 90 | 1007.9 |
| 20260506161003 | 56 | 165 | 3.0 | 11.0 | 0.12 | 0.30 | 0.30 | 90 | 1007.8 |
| 20260506160503 | 56 | 162 | 3.0 | 11.0 | 0.12 | 0.30 | 0.30 | 90 | 1007.7 |
| 20260506160003 | 56 | 159 | 3.0 | 11.0 | 0.12 | 0.30 | 0.30 | 90 | 1007.7 |
| 20260506155524 | 56 | 153 | 3.0 | 9.0 | 0.12 | 0.29 | 0.29 | 90 | 1007.9 |
| 20260506155003 | 56 | 161 | 3.0 | 9.0 | 0.11 | 0.28 | 0.28 | 90 | 1007.9 |
| 20260506154503 | 56 | 175 | 4.0 | 14.0 | 0.11 | 0.27 | 0.27 | 90 | 1007.8 |
| 20260506154003 | 56 | 168 | 4.0 | 14.0 | 0.10 | 0.25 | 0.25 | 90 | 1008.3 |
| 20260506153503 | 56 | 167 | 3.0 | 9.0 | 0.08 | 0.23 | 0.23 | 89 | 1008.2 |
| 20260506153003 | 56 | 163 | 3.0 | 9.0 | 0.07 | 0.21 | 0.21 | 89 | 1008.5 |
| 20260506152524 | 56 | 155 | 3.0 | 9.0 | 0.07 | 0.20 | 0.20 | 90 | 1008.4 |
| 20260506152024 | 56 | 170 | 2.0 | 7.0 | 0.07 | 0.19 | 0.19 | 89 | 1008.3 |
| 20260506151503 | 56 | 171 | 3.0 | 11.0 | 0.07 | 0.19 | 0.19 | 89 | 1008.0 |
| 20260506151003 | 56 | 165 | 4.0 | 11.0 | 0.07 | 0.19 | 0.19 | 89 | 1008.4 |
| 20260506150504 | 56 | 156 | 3.0 | 10.0 | 0.07 | 0.18 | 0.18 | 89 | 1008.3 |
| 20260506150003 | 56 | 153 | 3.0 | 9.0 | 0.07 | 0.18 | 0.18 | 89 | 1007.9 |
| 20260506145503 | 56 | 162 | 3.0 | 13.0 | 0.08 | 0.17 | 0.17 | 89 | 1008.0 |
| 20260506145003 | 56 | 167 | 2.0 | 13.0 | 0.08 | 0.17 | 0.17 | 89 | 1008.0 |
| 20260506144503 | 56 | 158 | 2.0 | 8.0 | 0.08 | 0.16 | 0.16 | 89 | 1008.2 |
| 20260506144003 | 56 | 172 | 3.0 | 10.0 | 0.07 | 0.15 | 0.15 | 89 | 1008.3 |
| 20260506143503 | 56 | 164 | 2.0 | 10.0 | 0.08 | 0.15 | 0.15 | 89 | 1008.3 |
| 20260506143003 | 56 | 142 | 2.0 | 7.0 | 0.08 | 0.14 | 0.14 | 89 | 1008.1 |
| 20260506142503 | 56 | 169 | 3.0 | 9.0 | 0.09 | 0.13 | 0.13 | 89 | 1008.3 |
| 20260506142003 | 56 | 174 | 3.0 | 9.0 | 0.09 | 0.13 | 0.13 | 88 | 1008.4 |
| 20260506141503 | 56 | 183 | 3.0 | 11.0 | 0.09 | 0.12 | 0.12 | 88 | 1008.7 |
| 20260506141003 | 56 | 200 | 3.0 | 11.0 | 0.09 | 0.11 | 0.11 | 88 | 1008.8 |
| 20260506140503 | 56 | 199 | 3.0 | 11.0 | 0.09 | 0.11 | 0.11 | 88 | 1008.8 |
| 20260506140003 | 56 | 181 | 3.0 | 11.0 | 0.09 | 0.10 | 0.10 | 88 | 1008.7 |
| 20260506135503 | 56 | 183 | 3.0 | 10.0 | 0.08 | 0.09 | 0.09 | 88 | 1008.6 |
| 20260506135003 | 56 | 185 | 3.0 | 10.0 | 0.07 | 0.08 | 0.08 | 88 | 1008.8 |
| 20260506134503 | 56 | 153 | 3.0 | 9.0 | 0.07 | 0.08 | 0.08 | 87 | 1008.9 |
| 20260506134003 | 56 | 171 | 3.0 | 9.0 | 0.07 | 0.07 | 0.07 | 88 | 1009.1 |
| 20260506133503 | 56 | 188 | 2.0 | 8.0 | 0.06 | 0.07 | 0.07 | 87 | 1008.9 |
| 20260506133003 | 56 | 195 | 2.0 | 7.0 | 0.05 | 0.06 | 0.06 | 87 | 1009.3 |
| 20260506132524 | 56 | 193 | 2.0 | 7.0 | 0.04 | 0.05 | 0.05 | 87 | 1008.9 |
| 20260506132003 | 57 | 201 | 2.0 | 11.0 | 0.03 | 0.04 | 0.04 | 87 | 1009.0 |
| 20260506131503 | 57 | 183 | 3.0 | 13.0 | 0.03 | 0.03 | 0.03 | 86 | 1009.1 |
| 20260506131003 | 57 | 173 | 3.0 | 13.0 | 0.02 | 0.02 | 0.02 | 86 | 1009.0 |
| 20260506130503 | 57 | 188 | 3.0 | 8.0 | 0.01 | 0.02 | 0.02 | 86 | 1008.9 |
| 20260506130003 | 57 | 186 | 3.0 | 9.0 | 0.01 | 0.01 | 0.01 | 86 | 1009.1 |
| 20260506125503 | 57 | 188 | 3.0 | 9.0 | 0.01 | 0.01 | 0.01 | 85 | 1009.1 |
| 20260506125003 | 57 | 199 | 3.0 | 9.0 | 0.01 | 0.01 | 0.01 | 85 | 1009.0 |
| 20260506124503 | 57 | 209 | 3.0 | 9.0 | 0.00 | 0.00 | 0.00 | 84 | 1008.8 |
| 20260506124003 | 57 | 191 | 2.0 | 9.0 | 0.00 | 0.00 | 0.00 | 84 | 1008.8 |
| 20260506123503 | 57 | 193 | 3.0 | 10.0 | 0.00 | 0.00 | 0.00 | 84 | 1008.7 |
| 20260506123003 | 57 | 195 | 3.0 | 10.0 | 0.00 | 0.00 | 0.00 | 84 | 1008.9 |
| 20260506122503 | 57 | 171 | 2.0 | 8.0 | 0.00 | 0.00 | 0.00 | 83 | 1008.6 |
| 20260506122024 | 57 | 164 | 3.0 | 8.0 | 0.00 | 0.00 | 0.00 | 83 | 1008.6 |
| 20260506121524 | 57 | 166 | 3.0 | 9.0 | 0.00 | 0.00 | 0.00 | 83 | 1008.6 |
| 20260506121024 | 57 | 165 | 2.0 | 9.0 | 0.00 | 0.00 | 0.00 | 84 | 1008.7 |
| 20260506120503 | 57 | 154 | 2.0 | 7.0 | 0.00 | 0.00 | 0.00 | 83 | 1008.7 |
| 20260506120003 | 57 | 138 | 2.0 | 6.0 | 0.00 | 0.00 | 0.00 | 82 | 1008.6 |
| 20260506115503 | 57 | 164 | 3.0 | 7.0 | 0.00 | 0.00 | 0.00 | 83 | 1008.8 |
| 20260506115003 | 58 | 178 | 3.0 | 10.0 | 0.00 | 0.00 | 0.00 | 81 | 1008.8 |
| 20260506114503 | 58 | 163 | 3.0 | 10.0 | 0.00 | 0.00 | 0.00 | 81 | 1008.9 |
| 20260506114003 | 58 | 181 | 3.0 | 13.0 | 0.00 | 0.00 | 0.00 | 80 | 1009.0 |
| 20260506113503 | 58 | 190 | 3.0 | 13.0 | 0.00 | 0.00 | 0.00 | 79 | 1008.9 |
| 20260506113003 | 59 | 169 | 3.0 | 13.0 | 0.00 | 0.00 | 0.00 | 78 | 1008.8 |
| 20260506112503 | 59 | 169 | 3.0 | 10.0 | 0.00 | 0.00 | 0.00 | 78 | 1008.8 |
| 20260506112003 | 59 | 188 | 3.0 | 16.0 | 0.00 | 0.00 | 0.00 | 77 | 1008.9 |
| 20260506111503 | 59 | 175 | 3.0 | 16.0 | 0.00 | 0.00 | 0.00 | 77 | 1008.8 |
| 20260506111003 | 59 | 163 | 4.0 | 9.0 | 0.00 | 0.00 | 0.00 | 77 | 1008.8 |
| 20260506110503 | 59 | 178 | 4.0 | 14.0 | 0.00 | 0.00 | 0.00 | 77 | 1008.8 |
| 20260506110003 | 59 | 165 | 4.0 | 14.0 | 0.00 | 0.00 | 0.00 | 76 | 1008.6 |
| 20260506105524 | 59 | 157 | 3.0 | 11.0 | 0.00 | 0.00 | 0.00 | 76 | 1008.5 |
| 20260506105024 | 59 | 156 | 2.0 | 9.0 | 0.00 | 0.00 | 0.00 | 76 | 1008.4 |
| 20260506104503 | 59 | 140 | 3.0 | 10.0 | 0.00 | 0.00 | 0.00 | 76 | 1008.5 |
| 20260506104003 | 59 | 155 | 3.0 | 10.0 | 0.00 | 0.00 | 0.00 | 76 | 1008.5 |
| 20260506103503 | 59 | 158 | 2.0 | 9.0 | 0.00 | 0.00 | 0.00 | 75 | 1008.5 |
| 20260506103003 | 59 | 161 | 2.0 | 9.0 | 0.00 | 0.00 | 0.00 | 75 | 1008.5 |
| 20260506102503 | 59 | 164 | 2.0 | 8.0 | 0.00 | 0.00 | 0.00 | 74 | 1008.5 |
| 20260506102003 | 59 | 148 | 3.0 | 10.0 | 0.00 | 0.00 | 0.00 | 74 | 1008.3 |
| 20260506101524 | 59 | 135 | 3.0 | 10.0 | 0.00 | 0.00 | 0.00 | 74 | 1008.4 |
| 20260506101003 | 59 | 131 | 3.0 | 9.0 | 0.00 | 0.00 | 0.00 | 73 | 1008.4 |
| 20260506100503 | 59 | 143 | 2.0 | 9.0 | 0.00 | 0.00 | 0.00 | 72 | 1008.5 |
| 20260506100004 | 59 | 156 | 2.0 | 7.0 | 0.00 | 0.00 | 0.00 | 72 | 1008.6 |
| 20260506095503 | 59 | 164 | 2.0 | 11.0 | 0.00 | 0.00 | 0.00 | 71 | 1008.5 |
| 20260506095024 | 59 | 156 | 2.0 | 11.0 | 0.00 | 0.00 | 0.00 | 72 | 1008.5 |
| 20260506094524 | 59 | 132 | 1.0 | 7.0 | 0.00 | 0.00 | 0.00 | 70 | 1008.4 |
| 20260506094003 | 59 | 151 | 1.0 | 7.0 | 0.00 | 0.00 | 0.00 | 70 | 1008.4 |
| 20260506093503 | 60 | 151 | 1.0 | 7.0 | 0.00 | 0.00 | 0.00 | 69 | 1008.6 |
| 20260506093003 | 60 | 135 | 1.0 | 4.0 | 0.00 | 0.00 | 0.00 | 69 | 1008.5 |
| 20260506092524 | 60 | 126 | 1.0 | 4.0 | 0.00 | 0.00 | 0.00 | 69 | 1008.6 |
| 20260506092003 | 60 | 169 | 1.0 | 7.0 | 0.00 | 0.00 | 0.00 | 67 | 1008.6 |
| 20260506091503 | 60 | 177 | 2.0 | 7.0 | 0.00 | 0.00 | 0.00 | 68 | 1008.6 |
| 20260506091003 | 60 | 169 | 1.0 | 7.0 | 0.00 | 0.00 | 0.00 | 67 | 1008.6 |
| 20260506090524 | 60 | 149 | 1.0 | 6.0 | 0.00 | 0.00 | 0.00 | 67 | 1008.7 |
| 20260506090024 | 60 | 156 | 2.0 | 10.0 | 0.00 | 0.00 | 0.00 | 67 | 1008.6 |
| 20260506085524 | 60 | 171 | 2.0 | 10.0 | 0.00 | 0.00 | 0.00 | 66 | 1008.7 |
| 20260506085003 | 60 | 167 | 2.0 | 10.0 | 0.00 | 0.00 | 0.00 | 66 | 1009.0 |
| 20260506084503 | 60 | 170 | 2.0 | 7.0 | 0.00 | 0.00 | 0.00 | 66 | 1009.0 |
| 20260506084003 | 60 | 169 | 2.0 | 6.0 | 0.00 | 0.00 | 0.00 | 66 | 1008.8 |
| 20260506083503 | 60 | 163 | 2.0 | 6.0 | 0.00 | 0.00 | 0.00 | 66 | 1008.9 |
| 20260506083003 | 61 | 157 | 2.0 | 7.0 | 0.00 | 0.00 | 0.00 | 66 | 1008.8 |
| 20260506082503 | 61 | 173 | 3.0 | 9.0 | 0.00 | 0.00 | 0.00 | 65 | 1008.7 |
| 20260506082003 | 61 | 183 | 3.0 | 11.0 | 0.00 | 0.00 | 0.00 | 66 | 1008.8 |
| 20260506081503 | 61 | 201 | 3.0 | 11.0 | 0.00 | 0.00 | 0.00 | 65 | 1008.9 |
| 20260506081003 | 61 | 195 | 4.0 | 14.0 | 0.00 | 0.00 | 0.00 | 64 | 1008.9 |
| 20260506080503 | 61 | 177 | 4.0 | 14.0 | 0.00 | 0.00 | 0.00 | 65 | 1008.9 |
| 20260506073503 | 61 | 175 | 4.0 | 14.0 | 0.00 | 0.00 | 0.00 | 63 | 1009.0 |
| 20260506073003 | 61 | 171 | 5.0 | 14.0 | 0.00 | 0.00 | 0.00 | 63 | 1009.3 |
| 20260506072524 | 61 | 176 | 4.0 | 14.0 | 0.00 | 0.00 | 0.00 | 63 | 1009.1 |
| 20260506072003 | 61 | 182 | 4.0 | 11.0 | 0.00 | 0.00 | 0.00 | 62 | 1009.2 |
| 20260506071503 | 61 | 186 | 4.0 | 11.0 | 0.00 | 0.00 | 0.00 | 62 | 1009.0 |
| 20260506071003 | 61 | 202 | 4.0 | 14.0 | 0.00 | 0.00 | 0.00 | 62 | 1009.3 |
| 20260506070503 | 61 | 191 | 3.0 | 14.0 | 0.00 | 0.00 | 0.00 | 62 | 1009.1 |
| 20260506062503 | 61 | 180 | 2.0 | 8.0 | 0.00 | 0.00 | 0.00 | 60 | 1009.5 |
| 20260506062003 | 61 | 197 | 2.0 | 7.0 | 0.00 | 0.00 | 0.00 | 60 | 1009.6 |
| 20260506061503 | 61 | 178 | 2.0 | 8.0 | 0.00 | 0.00 | 0.00 | 60 | 1009.7 |
| 20260506061003 | 61 | 183 | 3.0 | 8.0 | 0.00 | 0.00 | 0.00 | 60 | 1009.6 |
| 20260506060503 | 61 | 186 | 2.0 | 8.0 | 0.00 | 0.00 | 0.00 | 60 | 1009.7 |
| 20260506051003 | 62 | 146 | 2.0 | 8.0 | 0.00 | 0.00 | 0.00 | 58 | 1009.9 |
| 20260506050503 | 62 | 144 | 3.0 | 8.0 | 0.00 | 0.00 | 0.00 | 57 | 1009.8 |
| 20260506045004 | 62 | 158 | 3.0 | 10.0 | 0.00 | 0.00 | 0.00 | 57 | 1009.9 |
| 20260506044503 | 62 | 158 | 3.0 | 10.0 | 0.00 | 0.00 | 0.00 | 56 | 1010.1 |
| 20260506044024 | 62 | 170 | 2.0 | 8.0 | 0.00 | 0.00 | 0.00 | 57 | 1009.9 |
| 20260506043503 | 62 | 150 | 2.0 | 6.0 | 0.00 | 0.00 | 0.00 | 56 | 1010.0 |
| 20260506043003 | 63 | 156 | 2.0 | 9.0 | 0.00 | 0.00 | 0.00 | 56 | 1010.1 |
| 20260506042503 | 63 | 162 | 2.0 | 9.0 | 0.00 | 0.00 | 0.00 | 55 | 1010.2 |
| 20260506042003 | 63 | 151 | 2.0 | 8.0 | 0.00 | 0.00 | 0.00 | 55 | 1009.9 |
| 20260506041503 | 63 | 155 | 2.0 | 10.0 | 0.00 | 0.00 | 0.00 | 55 | 1009.9 |
| 20260506041024 | 63 | 160 | 3.0 | 10.0 | 0.00 | 0.00 | 0.00 | 55 | 1010.1 |
| 20260506040503 | 63 | 164 | 3.0 | 7.0 | 0.00 | 0.00 | 0.00 | 55 | 1010.1 |
| 20260506040003 | 63 | 172 | 3.0 | 7.0 | 0.00 | 0.00 | 0.00 | 55 | 1010.2 |
| 20260506035524 | 63 | 162 | 2.0 | 6.0 | 0.00 | 0.00 | 0.00 | 55 | 1010.2 |
| 20260506035003 | 63 | 159 | 2.0 | 6.0 | 0.00 | 0.00 | 0.00 | 55 | 1010.1 |
| 20260506034503 | 63 | 162 | 2.0 | 6.0 | 0.00 | 0.00 | 0.00 | 54 | 1010.2 |
| 20260506034003 | 64 | 150 | 2.0 | 6.0 | 0.00 | 0.00 | 0.00 | 54 | 1010.2 |
| 20260506033503 | 64 | 156 | 2.0 | 8.0 | 0.00 | 0.00 | 0.00 | 53 | 1010.0 |
| 20260506033003 | 64 | 166 | 3.0 | 8.0 | 0.00 | 0.00 | 0.00 | 53 | 1010.0 |
| 20260506032503 | 64 | 167 | 4.0 | 14.0 | 0.00 | 0.00 | 0.00 | 52 | 1010.1 |
| 20260506032003 | 64 | 164 | 3.0 | 14.0 | 0.00 | 0.00 | 0.00 | 52 | 1010.0 |
| 20260506031524 | 64 | 150 | 3.0 | 8.0 | 0.00 | 0.00 | 0.00 | 52 | 1010.1 |
| 20260506031003 | 64 | 152 | 2.0 | 8.0 | 0.00 | 0.00 | 0.00 | 52 | 1010.1 |
| 20260506030524 | 64 | 162 | 2.0 | 10.0 | 0.00 | 0.00 | 0.00 | 52 | 1010.2 |
| 20260506030024 | 64 | 170 | 3.0 | 10.0 | 0.00 | 0.00 | 0.00 | 52 | 1010.0 |
| 20260506025524 | 65 | 170 | 2.0 | 9.0 | 0.00 | 0.00 | 0.00 | 51 | 1010.1 |
| 20260506025003 | 65 | 139 | 2.0 | 10.0 | 0.00 | 0.00 | 0.00 | 51 | 1010.1 |
| 20260506024503 | 65 | 133 | 3.0 | 10.0 | 0.00 | 0.00 | 0.00 | 51 | 1010.1 |
| 20260506024024 | 65 | 138 | 3.0 | 9.0 | 0.00 | 0.00 | 0.00 | 51 | 1010.2 |
| 20260506023524 | 65 | 146 | 3.0 | 9.0 | 0.00 | 0.00 | 0.00 | 51 | 1010.1 |
| 20260506023024 | 65 | 153 | 3.0 | 9.0 | 0.00 | 0.00 | 0.00 | 51 | 1010.2 |
| 20260506022524 | 65 | 180 | 3.0 | 10.0 | 0.00 | 0.00 | 0.00 | 50 | 1010.2 |
| 20260506022003 | 66 | 173 | 4.0 | 13.0 | 0.00 | 0.00 | 0.00 | 49 | 1010.2 |
| 20260506021503 | 66 | 160 | 3.0 | 13.0 | 0.00 | 0.00 | 0.00 | 49 | 1010.2 |
| 20260506021003 | 66 | 157 | 3.0 | 9.0 | 0.00 | 0.00 | 0.00 | 49 | 1010.1 |
| 20260506020503 | 66 | 163 | 2.0 | 13.0 | 0.00 | 0.00 | 0.00 | 49 | 1010.1 |
| 20260506020003 | 67 | 156 | 2.0 | 13.0 | 0.00 | 0.00 | 0.00 | 48 | 1010.2 |
| 20260506015503 | 67 | 156 | 3.0 | 14.0 | 0.00 | 0.00 | 0.00 | 48 | 1010.2 |
| 20260506015003 | 67 | 182 | 3.0 | 14.0 | 0.00 | 0.00 | 0.00 | 48 | 1010.1 |
| 20260506014524 | 67 | 191 | 2.0 | 11.0 | 0.00 | 0.00 | 0.00 | 47 | 1009.9 |
| 20260506014003 | 67 | 165 | 2.0 | 10.0 | 0.00 | 0.00 | 0.00 | 47 | 1009.9 |
| 20260506013503 | 67 | 168 | 3.0 | 10.0 | 0.00 | 0.00 | 0.00 | 47 | 1009.9 |
| 20260506013003 | 68 | 171 | 3.0 | 8.0 | 0.00 | 0.00 | 0.00 | 46 | 1010.0 |
| 20260506012503 | 68 | 171 | 4.0 | 8.0 | 0.00 | 0.00 | 0.00 | 47 | 1009.7 |
| 20260506012003 | 68 | 169 | 3.0 | 9.0 | 0.00 | 0.00 | 0.00 | 46 | 1009.7 |
| 20260506011503 | 68 | 168 | 3.0 | 11.0 | 0.00 | 0.00 | 0.00 | 46 | 1009.8 |
| 20260506011003 | 68 | 173 | 3.0 | 11.0 | 0.00 | 0.00 | 0.00 | 45 | 1009.9 |
| 20260506010524 | 68 | 162 | 3.0 | 11.0 | 0.00 | 0.00 | 0.00 | 45 | 1009.6 |
| 20260506010003 | 68 | 164 | 4.0 | 14.0 | 0.00 | 0.00 | 0.00 | 44 | 1009.5 |
| 20260506005503 | 68 | 185 | 5.0 | 14.0 | 0.00 | 0.00 | 0.00 | 44 | 1009.4 |
| 20260506005024 | 68 | 205 | 4.0 | 13.0 | 0.00 | 0.00 | 0.00 | 44 | 1009.3 |
| 20260506004503 | 69 | 195 | 4.0 | 15.0 | 0.00 | 0.00 | 0.00 | 44 | 1009.3 |
| 20260506004003 | 69 | 175 | 4.0 | 15.0 | 0.00 | 0.00 | 0.00 | 44 | 1009.5 |
| 20260506003503 | 69 | 155 | 3.0 | 11.0 | 0.00 | 0.00 | 0.00 | 44 | 1009.3 |
| 20260506003003 | 69 | 152 | 2.0 | 11.0 | 0.00 | 0.00 | 0.00 | 44 | 1009.5 |
| 20260506002503 | 69 | 170 | 2.0 | 10.0 | 0.00 | 0.00 | 0.00 | 44 | 1009.2 |
| 20260506002024 | 69 | 173 | 3.0 | 11.0 | 0.00 | 0.00 | 0.00 | 44 | 1009.3 |
| 20260506001503 | 69 | 166 | 3.0 | 14.0 | 0.00 | 0.00 | 0.00 | 44 | 1009.0 |
| 20260506001003 | 69 | 165 | 3.0 | 14.0 | 0.00 | 0.00 | 0.00 | 44 | 1009.2 |
| 20260506000503 | 69 | 167 | 3.0 | 11.0 | 0.00 | 0.00 | 0.00 | 44 | 1009.3 |
| 20260506000003 | 69 | 166 | 2.0 | 9.0 | 0.00 | 0.00 | 0.00 | 44 | 1009.2 |
| 20260505235503 | 69 | 196 | 2.0 | 15.0 | 0.00 | 0.00 | 0.00 | 44 | 1009.2 |
| 20260505235003 | 70 | 194 | 3.0 | 15.0 | 0.00 | 0.00 | 0.00 | 44 | 1009.2 |
| 20260505234503 | 70 | 183 | 3.0 | 11.0 | 0.00 | 0.00 | 0.00 | 44 | 1009.3 |
| 20260505234003 | 70 | 180 | 4.0 | 13.0 | 0.00 | 0.00 | 0.00 | 44 | 1009.0 |
| 20260505233503 | 70 | 179 | 4.0 | 15.0 | 0.00 | 0.00 | 0.00 | 44 | 1009.1 |
| 20260505233003 | 70 | 179 | 3.0 | 17.0 | 0.00 | 0.00 | 0.00 | 44 | 1008.9 |
| 20260505232524 | 70 | 178 | 2.0 | 17.0 | 0.00 | 0.00 | 0.00 | 44 | 1009.2 |
| 20260505232024 | 70 | 166 | 2.0 | 8.0 | 0.00 | 0.00 | 0.00 | 43 | 1009.1 |
| 20260505231524 | 70 | 172 | 3.0 | 15.0 | 0.00 | 0.00 | 0.00 | 43 | 1009.1 |
| 20260505231003 | 70 | 182 | 2.0 | 15.0 | 0.00 | 0.00 | 0.00 | 43 | 1009.0 |
| 20260505230524 | 70 | 183 | 2.0 | 7.0 | 0.00 | 0.00 | 0.00 | 42 | 1009.0 |
| 20260505230003 | 70 | 172 | 3.0 | 9.0 | 0.00 | 0.00 | 0.00 | 42 | 1009.0 |
| 20260505225503 | 70 | 168 | 3.0 | 9.0 | 0.00 | 0.00 | 0.00 | 42 | 1008.9 |
| 20260505225003 | 70 | 167 | 3.0 | 13.0 | 0.00 | 0.00 | 0.00 | 42 | 1008.9 |
| 20260505224503 | 71 | 176 | 3.0 | 13.0 | 0.00 | 0.00 | 0.00 | 42 | 1008.7 |
| 20260505224003 | 71 | 191 | 3.0 | 16.0 | 0.00 | 0.00 | 0.00 | 42 | 1008.9 |
| 20260505223503 | 71 | 184 | 4.0 | 16.0 | 0.00 | 0.00 | 0.00 | 42 | 1008.9 |
| 20260505223024 | 71 | 180 | 5.0 | 14.0 | 0.00 | 0.00 | 0.00 | 42 | 1008.8 |
| 20260505222503 | 71 | 182 | 4.0 | 14.0 | 0.00 | 0.00 | 0.00 | 42 | 1008.7 |